Seattle, Washington
Traffic Map
Current Weather Conditions
Seattle, Washington
Overcast Light Rain
Overcast

Feels Like: 6°
Wind Chill: Ceiling: 4900
Heat Index: Visibility: 10mi
Dew Point: Wind: 3mph
Humidity: 97% Direction: 110° (ESE)
Pressure: 29.43in Gusts: 0mph
Raw Report DataKBFI 191053Z 11003KT 10SM -RA FEW030 BKN049 OVC075 06/06 A2943 RMK AO2 RAE01B47 SLP964 P0000 T00610056
Traffic Incident Summary
Active as of:
Severity:
Category:
InformationThere was an issue retrieving the traffic information for this location. Please try a different location or try again shortly.
Advertisements
Track Severe Weather on mobile